sensor_id;sensor_type;location;lat;lon;timestamp;P1;durP1;ratioP1;P2;durP2;ratioP2
5871;SDS011;2962;51.312;7.378;2022-08-21T00:00:10;7.77;;;4.40;;
5871;SDS011;2962;51.312;7.378;2022-08-21T00:02:46;12.30;;;4.73;;
5871;SDS011;2962;51.312;7.378;2022-08-21T00:05:14;11.03;;;5.27;;
5871;SDS011;2962;51.312;7.378;2022-08-21T00:07:39;18.63;;;4.97;;
5871;SDS011;2962;51.312;7.378;2022-08-21T00:10:05;6.20;;;4.63;;
5871;SDS011;2962;51.312;7.378;2022-08-21T00:12:31;10.30;;;5.47;;
5871;SDS011;2962;51.312;7.378;2022-08-21T00:14:57;4.77;;;4.03;;
5871;SDS011;2962;51.312;7.378;2022-08-21T00:17:22;10.67;;;4.80;;
5871;SDS011;2962;51.312;7.378;2022-08-21T00:19:48;11.73;;;5.13;;
5871;SDS011;2962;51.312;7.378;2022-08-21T00:22:13;7.40;;;4.90;;
5871;SDS011;2962;51.312;7.378;2022-08-21T00:24:38;8.40;;;5.43;;
5871;SDS011;2962;51.312;7.378;2022-08-21T00:27:04;11.83;;;6.27;;
5871;SDS011;2962;51.312;7.378;2022-08-21T00:29:29;10.10;;;6.67;;
5871;SDS011;2962;51.312;7.378;2022-08-21T00:31:54;10.47;;;5.90;;
5871;SDS011;2962;51.312;7.378;2022-08-21T00:34:20;10.60;;;6.60;;
5871;SDS011;2962;51.312;7.378;2022-08-21T00:36:45;11.60;;;6.23;;
5871;SDS011;2962;51.312;7.378;2022-08-21T00:39:10;11.13;;;6.67;;
5871;SDS011;2962;51.312;7.378;2022-08-21T00:41:37;11.40;;;6.13;;
5871;SDS011;2962;51.312;7.378;2022-08-21T00:44:03;15.17;;;5.90;;
5871;SDS011;2962;51.312;7.378;2022-08-21T00:46:30;7.43;;;5.60;;
5871;SDS011;2962;51.312;7.378;2022-08-21T00:48:56;11.50;;;5.60;;
5871;SDS011;2962;51.312;7.378;2022-08-21T00:51:42;9.90;;;6.50;;
5871;SDS011;2962;51.312;7.378;2022-08-21T00:54:12;15.13;;;5.83;;
5871;SDS011;2962;51.312;7.378;2022-08-21T00:56:39;13.80;;;5.73;;
5871;SDS011;2962;51.312;7.378;2022-08-21T00:59:05;8.63;;;5.07;;
5871;SDS011;2962;51.312;7.378;2022-08-21T01:01:31;9.90;;;5.53;;
5871;SDS011;2962;51.312;7.378;2022-08-21T01:03:56;11.23;;;5.80;;
5871;SDS011;2962;51.312;7.378;2022-08-21T01:06:22;13.70;;;6.70;;
5871;SDS011;2962;51.312;7.378;2022-08-21T01:08:47;15.03;;;6.00;;
5871;SDS011;2962;51.312;7.378;2022-08-21T01:11:14;15.00;;;6.90;;
5871;SDS011;2962;51.312;7.378;2022-08-21T01:13:40;15.10;;;6.40;;
5871;SDS011;2962;51.312;7.378;2022-08-21T01:16:11;13.43;;;5.60;;
5871;SDS011;2962;51.312;7.378;2022-08-21T01:18:38;11.47;;;5.33;;
5871;SDS011;2962;51.312;7.378;2022-08-21T01:21:12;11.60;;;5.97;;
5871;SDS011;2962;51.312;7.378;2022-08-21T01:23:40;8.67;;;6.50;;
5871;SDS011;2962;51.312;7.378;2022-08-21T01:26:07;14.63;;;6.20;;
5871;SDS011;2962;51.312;7.378;2022-08-21T01:28:34;9.00;;;5.83;;
5871;SDS011;2962;51.312;7.378;2022-08-21T01:31:04;10.03;;;4.97;;
5871;SDS011;2962;51.312;7.378;2022-08-21T01:33:31;19.03;;;5.50;;
5871;SDS011;2962;51.312;7.378;2022-08-21T01:35:56;11.73;;;6.50;;
5871;SDS011;2962;51.312;7.378;2022-08-21T01:38:21;17.17;;;7.20;;
5871;SDS011;2962;51.312;7.378;2022-08-21T01:40:47;12.30;;;6.40;;
5871;SDS011;2962;51.312;7.378;2022-08-21T01:43:13;7.87;;;6.63;;
5871;SDS011;2962;51.312;7.378;2022-08-21T01:45:38;14.83;;;6.50;;
5871;SDS011;2962;51.312;7.378;2022-08-21T01:48:03;17.13;;;6.80;;
5871;SDS011;2962;51.312;7.378;2022-08-21T01:50:29;16.17;;;6.80;;
5871;SDS011;2962;51.312;7.378;2022-08-21T01:52:55;12.00;;;7.33;;
5871;SDS011;2962;51.312;7.378;2022-08-21T01:55:21;13.27;;;6.00;;
5871;SDS011;2962;51.312;7.378;2022-08-21T01:57:47;9.60;;;6.40;;
5871;SDS011;2962;51.312;7.378;2022-08-21T02:00:14;9.40;;;5.60;;
5871;SDS011;2962;51.312;7.378;2022-08-21T02:02:41;9.00;;;5.80;;
5871;SDS011;2962;51.312;7.378;2022-08-21T02:05:07;24.30;;;7.17;;
5871;SDS011;2962;51.312;7.378;2022-08-21T02:07:35;14.83;;;6.40;;
5871;SDS011;2962;51.312;7.378;2022-08-21T02:10:07;10.50;;;6.50;;
5871;SDS011;2962;51.312;7.378;2022-08-21T02:12:35;9.00;;;6.30;;
5871;SDS011;2962;51.312;7.378;2022-08-21T02:15:00;11.30;;;7.10;;
5871;SDS011;2962;51.312;7.378;2022-08-21T02:17:26;11.33;;;7.20;;
5871;SDS011;2962;51.312;7.378;2022-08-21T02:19:51;14.37;;;7.90;;
5871;SDS011;2962;51.312;7.378;2022-08-21T02:22:17;15.03;;;8.60;;
5871;SDS011;2962;51.312;7.378;2022-08-21T02:24:42;19.37;;;9.20;;
5871;SDS011;2962;51.312;7.378;2022-08-21T02:27:07;11.40;;;6.87;;
5871;SDS011;2962;51.312;7.378;2022-08-21T02:29:33;12.30;;;8.20;;
5871;SDS011;2962;51.312;7.378;2022-08-21T02:31:58;10.83;;;7.87;;
5871;SDS011;2962;51.312;7.378;2022-08-21T02:34:23;20.30;;;8.80;;
5871;SDS011;2962;51.312;7.378;2022-08-21T02:36:49;17.37;;;8.53;;
5871;SDS011;2962;51.312;7.378;2022-08-21T02:39:15;14.77;;;8.13;;
5871;SDS011;2962;51.312;7.378;2022-08-21T02:41:40;20.37;;;9.73;;
5871;SDS011;2962;51.312;7.378;2022-08-21T02:44:05;17.83;;;8.63;;
5871;SDS011;2962;51.312;7.378;2022-08-21T02:46:30;19.13;;;7.87;;
5871;SDS011;2962;51.312;7.378;2022-08-21T02:48:56;10.13;;;7.80;;
5871;SDS011;2962;51.312;7.378;2022-08-21T02:51:22;11.13;;;7.33;;
5871;SDS011;2962;51.312;7.378;2022-08-21T02:53:48;11.73;;;7.70;;
5871;SDS011;2962;51.312;7.378;2022-08-21T02:56:14;14.17;;;8.07;;
5871;SDS011;2962;51.312;7.378;2022-08-21T02:58:43;19.37;;;8.80;;
5871;SDS011;2962;51.312;7.378;2022-08-21T03:01:14;11.33;;;8.07;;
5871;SDS011;2962;51.312;7.378;2022-08-21T03:03:41;17.37;;;9.90;;
5871;SDS011;2962;51.312;7.378;2022-08-21T03:06:08;16.13;;;9.33;;
5871;SDS011;2962;51.312;7.378;2022-08-21T03:08:35;12.67;;;8.10;;
5871;SDS011;2962;51.312;7.378;2022-08-21T03:11:02;14.37;;;8.40;;
5871;SDS011;2962;51.312;7.378;2022-08-21T03:13:28;12.57;;;8.40;;
5871;SDS011;2962;51.312;7.378;2022-08-21T03:15:53;15.50;;;8.60;;
5871;SDS011;2962;51.312;7.378;2022-08-21T03:18:19;11.80;;;8.43;;
5871;SDS011;2962;51.312;7.378;2022-08-21T03:20:45;18.63;;;8.43;;
5871;SDS011;2962;51.312;7.378;2022-08-21T03:23:10;15.63;;;9.03;;
5871;SDS011;2962;51.312;7.378;2022-08-21T03:25:37;18.23;;;8.83;;
5871;SDS011;2962;51.312;7.378;2022-08-21T03:28:03;16.00;;;8.23;;
5871;SDS011;2962;51.312;7.378;2022-08-21T03:30:30;21.57;;;7.60;;
5871;SDS011;2962;51.312;7.378;2022-08-21T03:32:57;20.97;;;9.57;;
5871;SDS011;2962;51.312;7.378;2022-08-21T03:35:23;12.47;;;8.37;;
5871;SDS011;2962;51.312;7.378;2022-08-21T03:37:49;14.47;;;7.83;;
5871;SDS011;2962;51.312;7.378;2022-08-21T03:40:15;14.30;;;8.17;;
5871;SDS011;2962;51.312;7.378;2022-08-21T03:42:42;11.10;;;8.20;;
5871;SDS011;2962;51.312;7.378;2022-08-21T03:45:08;11.80;;;7.20;;
5871;SDS011;2962;51.312;7.378;2022-08-21T03:47:34;13.23;;;8.87;;
5871;SDS011;2962;51.312;7.378;2022-08-21T03:50:00;16.60;;;9.43;;
5871;SDS011;2962;51.312;7.378;2022-08-21T03:52:26;12.83;;;7.80;;
5871;SDS011;2962;51.312;7.378;2022-08-21T03:54:51;15.03;;;9.50;;
5871;SDS011;2962;51.312;7.378;2022-08-21T03:57:17;16.90;;;9.83;;
5871;SDS011;2962;51.312;7.378;2022-08-21T03:59:43;17.33;;;10.13;;
5871;SDS011;2962;51.312;7.378;2022-08-21T04:02:08;16.37;;;9.47;;
5871;SDS011;2962;51.312;7.378;2022-08-21T04:04:35;13.50;;;8.57;;
5871;SDS011;2962;51.312;7.378;2022-08-21T04:07:01;16.80;;;8.80;;
5871;SDS011;2962;51.312;7.378;2022-08-21T04:09:27;11.20;;;9.03;;
5871;SDS011;2962;51.312;7.378;2022-08-21T04:11:53;14.27;;;8.83;;
5871;SDS011;2962;51.312;7.378;2022-08-21T04:14:18;9.73;;;7.70;;
5871;SDS011;2962;51.312;7.378;2022-08-21T04:16:44;12.43;;;8.60;;
5871;SDS011;2962;51.312;7.378;2022-08-21T04:19:10;21.43;;;9.57;;
5871;SDS011;2962;51.312;7.378;2022-08-21T04:21:37;13.30;;;8.60;;
5871;SDS011;2962;51.312;7.378;2022-08-21T04:24:04;10.50;;;8.00;;
5871;SDS011;2962;51.312;7.378;2022-08-21T04:26:30;16.40;;;8.87;;
5871;SDS011;2962;51.312;7.378;2022-08-21T04:28:56;18.20;;;8.50;;
5871;SDS011;2962;51.312;7.378;2022-08-21T04:31:24;22.93;;;7.90;;
5871;SDS011;2962;51.312;7.378;2022-08-21T04:33:50;18.87;;;8.43;;
5871;SDS011;2962;51.312;7.378;2022-08-21T04:36:16;13.27;;;8.07;;
5871;SDS011;2962;51.312;7.378;2022-08-21T04:38:41;16.70;;;8.10;;
5871;SDS011;2962;51.312;7.378;2022-08-21T04:41:06;21.30;;;8.83;;
5871;SDS011;2962;51.312;7.378;2022-08-21T04:43:32;17.43;;;8.63;;
5871;SDS011;2962;51.312;7.378;2022-08-21T04:45:57;14.57;;;9.30;;
5871;SDS011;2962;51.312;7.378;2022-08-21T04:48:23;11.60;;;7.97;;
5871;SDS011;2962;51.312;7.378;2022-08-21T04:51:02;9.60;;;8.13;;
5871;SDS011;2962;51.312;7.378;2022-08-21T04:53:46;8.93;;;8.00;;
5871;SDS011;2962;51.312;7.378;2022-08-21T04:56:22;15.83;;;8.10;;
5871;SDS011;2962;51.312;7.378;2022-08-21T04:58:52;12.10;;;8.80;;
5871;SDS011;2962;51.312;7.378;2022-08-21T05:01:21;11.80;;;7.03;;
5871;SDS011;2962;51.312;7.378;2022-08-21T05:03:50;18.07;;;7.13;;
5871;SDS011;2962;51.312;7.378;2022-08-21T05:06:20;12.00;;;8.37;;
5871;SDS011;2962;51.312;7.378;2022-08-21T05:08:46;11.67;;;7.70;;
5871;SDS011;2962;51.312;7.378;2022-08-21T05:11:13;12.93;;;8.00;;
5871;SDS011;2962;51.312;7.378;2022-08-21T05:13:39;9.27;;;7.50;;
5871;SDS011;2962;51.312;7.378;2022-08-21T05:16:06;13.90;;;7.80;;
5871;SDS011;2962;51.312;7.378;2022-08-21T05:18:31;16.57;;;7.50;;
5871;SDS011;2962;51.312;7.378;2022-08-21T05:20:56;9.70;;;7.37;;
5871;SDS011;2962;51.312;7.378;2022-08-21T05:23:22;10.93;;;7.27;;
5871;SDS011;2962;51.312;7.378;2022-08-21T05:25:47;11.43;;;7.20;;
5871;SDS011;2962;51.312;7.378;2022-08-21T05:28:12;10.57;;;7.40;;
5871;SDS011;2962;51.312;7.378;2022-08-21T05:30:38;9.83;;;7.50;;
5871;SDS011;2962;51.312;7.378;2022-08-21T05:33:04;12.07;;;7.77;;
5871;SDS011;2962;51.312;7.378;2022-08-21T05:35:31;10.40;;;6.97;;
5871;SDS011;2962;51.312;7.378;2022-08-21T05:37:57;12.13;;;7.53;;
5871;SDS011;2962;51.312;7.378;2022-08-21T05:40:23;14.53;;;6.93;;
5871;SDS011;2962;51.312;7.378;2022-08-21T05:42:49;8.67;;;6.70;;
5871;SDS011;2962;51.312;7.378;2022-08-21T05:45:18;13.87;;;6.30;;
5871;SDS011;2962;51.312;7.378;2022-08-21T05:47:44;15.57;;;7.63;;
5871;SDS011;2962;51.312;7.378;2022-08-21T05:50:09;12.87;;;7.13;;
5871;SDS011;2962;51.312;7.378;2022-08-21T05:52:35;8.40;;;6.50;;
5871;SDS011;2962;51.312;7.378;2022-08-21T05:55:00;11.27;;;6.60;;
5871;SDS011;2962;51.312;7.378;2022-08-21T05:57:26;10.20;;;6.10;;
5871;SDS011;2962;51.312;7.378;2022-08-21T05:59:52;12.30;;;7.13;;
5871;SDS011;2962;51.312;7.378;2022-08-21T06:02:18;10.27;;;6.00;;
5871;SDS011;2962;51.312;7.378;2022-08-21T06:04:44;18.03;;;6.03;;
5871;SDS011;2962;51.312;7.378;2022-08-21T06:07:09;17.30;;;6.40;;
5871;SDS011;2962;51.312;7.378;2022-08-21T06:09:35;9.03;;;6.00;;
5871;SDS011;2962;51.312;7.378;2022-08-21T06:12:06;9.97;;;6.27;;
5871;SDS011;2962;51.312;7.378;2022-08-21T06:14:33;7.20;;;6.50;;
5871;SDS011;2962;51.312;7.378;2022-08-21T06:17:06;9.83;;;5.83;;
5871;SDS011;2962;51.312;7.378;2022-08-21T06:19:33;5.87;;;5.27;;
5871;SDS011;2962;51.312;7.378;2022-08-21T06:21:59;11.93;;;6.17;;
5871;SDS011;2962;51.312;7.378;2022-08-21T06:24:25;15.03;;;7.10;;
5871;SDS011;2962;51.312;7.378;2022-08-21T06:26:51;17.60;;;8.80;;
5871;SDS011;2962;51.312;7.378;2022-08-21T06:29:16;12.77;;;8.60;;
5871;SDS011;2962;51.312;7.378;2022-08-21T06:31:43;19.53;;;9.20;;
5871;SDS011;2962;51.312;7.378;2022-08-21T06:34:09;15.33;;;9.03;;
5871;SDS011;2962;51.312;7.378;2022-08-21T06:36:35;14.30;;;9.50;;
5871;SDS011;2962;51.312;7.378;2022-08-21T06:39:00;18.07;;;10.97;;
5871;SDS011;2962;51.312;7.378;2022-08-21T06:41:26;19.33;;;9.83;;
5871;SDS011;2962;51.312;7.378;2022-08-21T06:43:51;18.93;;;11.17;;
5871;SDS011;2962;51.312;7.378;2022-08-21T06:46:17;17.70;;;9.70;;
5871;SDS011;2962;51.312;7.378;2022-08-21T06:48:42;18.37;;;10.53;;
5871;SDS011;2962;51.312;7.378;2022-08-21T06:51:08;13.47;;;9.97;;
5871;SDS011;2962;51.312;7.378;2022-08-21T06:53:33;18.43;;;10.30;;
5871;SDS011;2962;51.312;7.378;2022-08-21T06:55:58;16.70;;;10.90;;
5871;SDS011;2962;51.312;7.378;2022-08-21T06:58:24;23.37;;;11.03;;
5871;SDS011;2962;51.312;7.378;2022-08-21T07:00:49;15.83;;;10.37;;
5871;SDS011;2962;51.312;7.378;2022-08-21T07:03:20;21.00;;;10.83;;
5871;SDS011;2962;51.312;7.378;2022-08-21T07:05:52;18.10;;;12.50;;
5871;SDS011;2962;51.312;7.378;2022-08-21T07:08:17;13.90;;;10.87;;
5871;SDS011;2962;51.312;7.378;2022-08-21T07:10:42;13.57;;;10.47;;
5871;SDS011;2962;51.312;7.378;2022-08-21T07:13:08;18.37;;;10.83;;
5871;SDS011;2962;51.312;7.378;2022-08-21T07:15:34;14.27;;;9.77;;
5871;SDS011;2962;51.312;7.378;2022-08-21T07:17:59;16.87;;;11.20;;
5871;SDS011;2962;51.312;7.378;2022-08-21T07:20:26;20.60;;;10.63;;
5871;SDS011;2962;51.312;7.378;2022-08-21T07:22:53;18.43;;;11.40;;
5871;SDS011;2962;51.312;7.378;2022-08-21T07:25:19;14.97;;;10.37;;
5871;SDS011;2962;51.312;7.378;2022-08-21T07:27:44;15.60;;;10.03;;
5871;SDS011;2962;51.312;7.378;2022-08-21T07:30:09;24.83;;;11.60;;
5871;SDS011;2962;51.312;7.378;2022-08-21T07:32:35;14.80;;;10.23;;
5871;SDS011;2962;51.312;7.378;2022-08-21T07:35:01;12.80;;;10.50;;
5871;SDS011;2962;51.312;7.378;2022-08-21T07:37:27;12.90;;;10.90;;
5871;SDS011;2962;51.312;7.378;2022-08-21T07:39:52;15.40;;;10.83;;
5871;SDS011;2962;51.312;7.378;2022-08-21T07:42:17;16.73;;;10.10;;
5871;SDS011;2962;51.312;7.378;2022-08-21T07:44:43;15.97;;;10.97;;
5871;SDS011;2962;51.312;7.378;2022-08-21T07:47:08;15.90;;;9.37;;
5871;SDS011;2962;51.312;7.378;2022-08-21T07:49:34;12.87;;;9.37;;
5871;SDS011;2962;51.312;7.378;2022-08-21T07:51:59;20.90;;;10.47;;
5871;SDS011;2962;51.312;7.378;2022-08-21T07:54:25;12.63;;;7.43;;
5871;SDS011;2962;51.312;7.378;2022-08-21T07:56:50;15.10;;;9.23;;
5871;SDS011;2962;51.312;7.378;2022-08-21T07:59:16;15.30;;;10.03;;
5871;SDS011;2962;51.312;7.378;2022-08-21T08:01:41;21.83;;;8.70;;
5871;SDS011;2962;51.312;7.378;2022-08-21T08:04:06;12.53;;;9.00;;
5871;SDS011;2962;51.312;7.378;2022-08-21T08:06:31;11.30;;;7.60;;
5871;SDS011;2962;51.312;7.378;2022-08-21T08:08:57;15.00;;;8.60;;
5871;SDS011;2962;51.312;7.378;2022-08-21T08:11:22;15.50;;;7.83;;
5871;SDS011;2962;51.312;7.378;2022-08-21T08:13:48;11.23;;;6.90;;
5871;SDS011;2962;51.312;7.378;2022-08-21T08:16:16;12.80;;;7.87;;
5871;SDS011;2962;51.312;7.378;2022-08-21T08:18:42;13.20;;;8.07;;
5871;SDS011;2962;51.312;7.378;2022-08-21T08:21:08;11.90;;;7.63;;
5871;SDS011;2962;51.312;7.378;2022-08-21T08:23:34;12.43;;;6.80;;
5871;SDS011;2962;51.312;7.378;2022-08-21T08:26:00;12.63;;;6.37;;
5871;SDS011;2962;51.312;7.378;2022-08-21T08:28:27;13.97;;;6.27;;
5871;SDS011;2962;51.312;7.378;2022-08-21T08:30:53;7.63;;;5.30;;
5871;SDS011;2962;51.312;7.378;2022-08-21T08:33:19;7.40;;;5.67;;
5871;SDS011;2962;51.312;7.378;2022-08-21T08:35:46;13.77;;;6.00;;
5871;SDS011;2962;51.312;7.378;2022-08-21T08:38:13;11.00;;;4.80;;
5871;SDS011;2962;51.312;7.378;2022-08-21T08:40:45;5.83;;;4.83;;
5871;SDS011;2962;51.312;7.378;2022-08-21T08:43:12;9.13;;;4.47;;
5871;SDS011;2962;51.312;7.378;2022-08-21T08:45:39;5.73;;;4.10;;
5871;SDS011;2962;51.312;7.378;2022-08-21T08:48:08;10.43;;;4.07;;
5871;SDS011;2962;51.312;7.378;2022-08-21T08:50:44;5.57;;;3.77;;
5871;SDS011;2962;51.312;7.378;2022-08-21T08:53:19;6.40;;;2.97;;
5871;SDS011;2962;51.312;7.378;2022-08-21T08:55:57;6.10;;;3.03;;
5871;SDS011;2962;51.312;7.378;2022-08-21T08:58:33;8.23;;;3.03;;
5871;SDS011;2962;51.312;7.378;2022-08-21T09:01:03;5.00;;;3.40;;
5871;SDS011;2962;51.312;7.378;2022-08-21T09:03:36;6.50;;;2.83;;
5871;SDS011;2962;51.312;7.378;2022-08-21T09:06:13;7.53;;;2.73;;
5871;SDS011;2962;51.312;7.378;2022-08-21T09:08:54;8.00;;;2.60;;
5871;SDS011;2962;51.312;7.378;2022-08-21T09:11:44;5.70;;;3.00;;
5871;SDS011;2962;51.312;7.378;2022-08-21T09:14:19;7.53;;;3.00;;
5871;SDS011;2962;51.312;7.378;2022-08-21T09:19:53;3.73;;;2.63;;
5871;SDS011;2962;51.312;7.378;2022-08-21T09:27:39;8.97;;;2.73;;
5871;SDS011;2962;51.312;7.378;2022-08-21T09:30:05;10.10;;;3.10;;
5871;SDS011;2962;51.312;7.378;2022-08-21T09:32:32;6.57;;;2.43;;
5871;SDS011;2962;51.312;7.378;2022-08-21T09:35:08;7.53;;;2.73;;
5871;SDS011;2962;51.312;7.378;2022-08-21T09:37:49;9.13;;;2.87;;
5871;SDS011;2962;51.312;7.378;2022-08-21T09:40:20;3.37;;;2.57;;
5871;SDS011;2962;51.312;7.378;2022-08-21T09:42:57;5.13;;;2.30;;
5871;SDS011;2962;51.312;7.378;2022-08-21T09:45:24;7.70;;;2.80;;
5871;SDS011;2962;51.312;7.378;2022-08-21T09:47:50;7.10;;;2.43;;
5871;SDS011;2962;51.312;7.378;2022-08-21T09:50:21;5.20;;;2.67;;
5871;SDS011;2962;51.312;7.378;2022-08-21T09:52:50;11.03;;;2.53;;
5871;SDS011;2962;51.312;7.378;2022-08-21T09:55:30;5.93;;;2.03;;
5871;SDS011;2962;51.312;7.378;2022-08-21T09:58:29;9.60;;;2.73;;
5871;SDS011;2962;51.312;7.378;2022-08-21T10:00:57;4.23;;;1.80;;
5871;SDS011;2962;51.312;7.378;2022-08-21T10:03:24;6.87;;;3.03;;
5871;SDS011;2962;51.312;7.378;2022-08-21T10:05:55;3.47;;;1.93;;
5871;SDS011;2962;51.312;7.378;2022-08-21T10:08:21;3.23;;;1.80;;
5871;SDS011;2962;51.312;7.378;2022-08-21T10:10:55;9.47;;;2.47;;
5871;SDS011;2962;51.312;7.378;2022-08-21T10:24:03;2.97;;;2.00;;
5871;SDS011;2962;51.312;7.378;2022-08-21T10:34:58;6.03;;;3.00;;
5871;SDS011;2962;51.312;7.378;2022-08-21T10:40:16;5.80;;;2.70;;
5871;SDS011;2962;51.312;7.378;2022-08-21T10:42:59;3.77;;;2.23;;
5871;SDS011;2962;51.312;7.378;2022-08-21T10:48:22;3.70;;;2.13;;
5871;SDS011;2962;51.312;7.378;2022-08-21T10:50:59;3.53;;;3.23;;
5871;SDS011;2962;51.312;7.378;2022-08-21T10:53:50;10.03;;;4.03;;
5871;SDS011;2962;51.312;7.378;2022-08-21T10:56:31;4.73;;;2.07;;
5871;SDS011;2962;51.312;7.378;2022-08-21T11:01:48;5.93;;;2.47;;
5871;SDS011;2962;51.312;7.378;2022-08-21T11:04:20;6.73;;;2.67;;
5871;SDS011;2962;51.312;7.378;2022-08-21T11:07:04;5.20;;;2.03;;
5871;SDS011;2962;51.312;7.378;2022-08-21T11:09:40;5.60;;;2.60;;
5871;SDS011;2962;51.312;7.378;2022-08-21T11:12:27;3.40;;;2.00;;
5871;SDS011;2962;51.312;7.378;2022-08-21T11:15:02;7.80;;;1.93;;
5871;SDS011;2962;51.312;7.378;2022-08-21T11:17:47;3.83;;;1.50;;
5871;SDS011;2962;51.312;7.378;2022-08-21T11:20:40;5.03;;;2.10;;
5871;SDS011;2962;51.312;7.378;2022-08-21T11:23:43;6.93;;;2.43;;
5871;SDS011;2962;51.312;7.378;2022-08-21T11:26:15;1.50;;;1.40;;
5871;SDS011;2962;51.312;7.378;2022-08-21T11:28:54;4.73;;;1.80;;
5871;SDS011;2962;51.312;7.378;2022-08-21T11:43:01;3.13;;;1.67;;
5871;SDS011;2962;51.312;7.378;2022-08-21T11:50:49;3.73;;;1.90;;
5871;SDS011;2962;51.312;7.378;2022-08-21T11:53:19;3.03;;;2.07;;
5871;SDS011;2962;51.312;7.378;2022-08-21T11:55:59;2.70;;;1.70;;
5871;SDS011;2962;51.312;7.378;2022-08-21T11:58:41;5.63;;;1.83;;
5871;SDS011;2962;51.312;7.378;2022-08-21T12:01:19;2.07;;;1.90;;
5871;SDS011;2962;51.312;7.378;2022-08-21T12:04:10;3.23;;;1.57;;
5871;SDS011;2962;51.312;7.378;2022-08-21T12:06:46;2.20;;;1.50;;
5871;SDS011;2962;51.312;7.378;2022-08-21T12:09:51;1.73;;;1.33;;
5871;SDS011;2962;51.312;7.378;2022-08-21T12:14:45;1.90;;;1.80;;
5871;SDS011;2962;51.312;7.378;2022-08-21T12:19:56;6.90;;;2.87;;
5871;SDS011;2962;51.312;7.378;2022-08-21T12:22:24;1.73;;;0.93;;
5871;SDS011;2962;51.312;7.378;2022-08-21T12:25:04;2.63;;;1.33;;
5871;SDS011;2962;51.312;7.378;2022-08-21T12:27:46;2.13;;;1.30;;
5871;SDS011;2962;51.312;7.378;2022-08-21T12:32:57;3.13;;;1.33;;
5871;SDS011;2962;51.312;7.378;2022-08-21T12:35:26;2.17;;;1.23;;
5871;SDS011;2962;51.312;7.378;2022-08-21T12:38:14;2.30;;;1.50;;
5871;SDS011;2962;51.312;7.378;2022-08-21T12:40:43;2.30;;;1.30;;
5871;SDS011;2962;51.312;7.378;2022-08-21T12:43:21;2.93;;;1.90;;
5871;SDS011;2962;51.312;7.378;2022-08-21T12:45:54;3.93;;;1.20;;
5871;SDS011;2962;51.312;7.378;2022-08-21T12:48:33;1.90;;;1.77;;
5871;SDS011;2962;51.312;7.378;2022-08-21T12:51:09;1.30;;;1.30;;
5871;SDS011;2962;51.312;7.378;2022-08-21T12:53:42;2.63;;;1.10;;
5871;SDS011;2962;51.312;7.378;2022-08-21T12:56:13;1.00;;;1.00;;
5871;SDS011;2962;51.312;7.378;2022-08-21T12:58:44;1.53;;;1.00;;
5871;SDS011;2962;51.312;7.378;2022-08-21T13:03:54;1.83;;;1.10;;
5871;SDS011;2962;51.312;7.378;2022-08-21T13:06:22;1.00;;;0.90;;
5871;SDS011;2962;51.312;7.378;2022-08-21T13:08:52;3.03;;;1.13;;
5871;SDS011;2962;51.312;7.378;2022-08-21T13:11:22;2.83;;;1.33;;
5871;SDS011;2962;51.312;7.378;2022-08-21T13:13:48;1.20;;;1.00;;
5871;SDS011;2962;51.312;7.378;2022-08-21T13:16:18;2.50;;;0.93;;
5871;SDS011;2962;51.312;7.378;2022-08-21T13:18:56;2.00;;;1.20;;
5871;SDS011;2962;51.312;7.378;2022-08-21T13:21:27;2.53;;;1.43;;
5871;SDS011;2962;51.312;7.378;2022-08-21T13:26:54;3.73;;;1.30;;
5871;SDS011;2962;51.312;7.378;2022-08-21T13:29:22;2.13;;;1.47;;
5871;SDS011;2962;51.312;7.378;2022-08-21T13:31:54;2.20;;;1.07;;
5871;SDS011;2962;51.312;7.378;2022-08-21T13:34:23;1.53;;;1.10;;
5871;SDS011;2962;51.312;7.378;2022-08-21T13:36:56;1.63;;;1.30;;
5871;SDS011;2962;51.312;7.378;2022-08-21T13:39:24;1.20;;;1.10;;
5871;SDS011;2962;51.312;7.378;2022-08-21T13:41:50;0.90;;;0.90;;
5871;SDS011;2962;51.312;7.378;2022-08-21T13:44:21;2.47;;;1.20;;
5871;SDS011;2962;51.312;7.378;2022-08-21T13:46:51;2.03;;;1.07;;
5871;SDS011;2962;51.312;7.378;2022-08-21T13:49:18;1.30;;;1.17;;
5871;SDS011;2962;51.312;7.378;2022-08-21T13:51:45;0.97;;;0.97;;
5871;SDS011;2962;51.312;7.378;2022-08-21T13:54:25;1.23;;;1.17;;
5871;SDS011;2962;51.312;7.378;2022-08-21T13:56:53;2.03;;;1.00;;
5871;SDS011;2962;51.312;7.378;2022-08-21T13:59:24;2.10;;;0.90;;
5871;SDS011;2962;51.312;7.378;2022-08-21T14:02:21;4.33;;;1.27;;
5871;SDS011;2962;51.312;7.378;2022-08-21T14:04:54;3.50;;;1.37;;
5871;SDS011;2962;51.312;7.378;2022-08-21T14:07:40;1.80;;;1.70;;
5871;SDS011;2962;51.312;7.378;2022-08-21T14:10:12;1.33;;;1.20;;
5871;SDS011;2962;51.312;7.378;2022-08-21T14:12:42;1.07;;;1.07;;
5871;SDS011;2962;51.312;7.378;2022-08-21T14:15:16;2.60;;;1.37;;
5871;SDS011;2962;51.312;7.378;2022-08-21T14:17:43;1.77;;;1.33;;
5871;SDS011;2962;51.312;7.378;2022-08-21T14:20:11;2.03;;;1.70;;
5871;SDS011;2962;51.312;7.378;2022-08-21T14:22:49;3.53;;;1.30;;
5871;SDS011;2962;51.312;7.378;2022-08-21T14:30:33;2.33;;;1.70;;
5871;SDS011;2962;51.312;7.378;2022-08-21T14:33:02;1.93;;;1.30;;
5871;SDS011;2962;51.312;7.378;2022-08-21T14:35:30;1.60;;;1.30;;
5871;SDS011;2962;51.312;7.378;2022-08-21T14:37:56;1.57;;;1.30;;
5871;SDS011;2962;51.312;7.378;2022-08-21T14:40:23;4.77;;;1.13;;
5871;SDS011;2962;51.312;7.378;2022-08-21T14:42:49;1.20;;;1.10;;
5871;SDS011;2962;51.312;7.378;2022-08-21T14:45:16;7.00;;;1.30;;
5871;SDS011;2962;51.312;7.378;2022-08-21T14:47:53;3.33;;;1.30;;
5871;SDS011;2962;51.312;7.378;2022-08-21T14:50:19;2.70;;;1.43;;
5871;SDS011;2962;51.312;7.378;2022-08-21T14:52:44;6.40;;;1.90;;
5871;SDS011;2962;51.312;7.378;2022-08-21T14:55:10;3.33;;;3.23;;
5871;SDS011;2962;51.312;7.378;2022-08-21T14:57:41;5.03;;;2.47;;
5871;SDS011;2962;51.312;7.378;2022-08-21T15:00:09;2.53;;;1.43;;
5871;SDS011;2962;51.312;7.378;2022-08-21T15:02:36;1.10;;;1.10;;
5871;SDS011;2962;51.312;7.378;2022-08-21T15:05:01;1.30;;;1.30;;
5871;SDS011;2962;51.312;7.378;2022-08-21T15:07:27;1.00;;;1.00;;
5871;SDS011;2962;51.312;7.378;2022-08-21T15:09:52;2.30;;;1.13;;
5871;SDS011;2962;51.312;7.378;2022-08-21T15:12:18;1.00;;;1.00;;
5871;SDS011;2962;51.312;7.378;2022-08-21T15:14:43;1.30;;;1.20;;
5871;SDS011;2962;51.312;7.378;2022-08-21T15:17:09;1.47;;;1.00;;
5871;SDS011;2962;51.312;7.378;2022-08-21T15:19:35;4.17;;;1.40;;
5871;SDS011;2962;51.312;7.378;2022-08-21T15:22:02;3.20;;;1.20;;
5871;SDS011;2962;51.312;7.378;2022-08-21T15:24:28;2.90;;;1.10;;
5871;SDS011;2962;51.312;7.378;2022-08-21T15:26:54;1.83;;;1.13;;
5871;SDS011;2962;51.312;7.378;2022-08-21T15:29:21;2.57;;;1.37;;
5871;SDS011;2962;51.312;7.378;2022-08-21T15:31:54;1.87;;;1.43;;
5871;SDS011;2962;51.312;7.378;2022-08-21T15:34:23;1.10;;;1.00;;
5871;SDS011;2962;51.312;7.378;2022-08-21T15:36:49;2.73;;;1.37;;
5871;SDS011;2962;51.312;7.378;2022-08-21T15:39:15;2.13;;;0.90;;
5871;SDS011;2962;51.312;7.378;2022-08-21T15:41:40;1.23;;;1.10;;
5871;SDS011;2962;51.312;7.378;2022-08-21T15:44:06;1.10;;;1.10;;
5871;SDS011;2962;51.312;7.378;2022-08-21T15:46:34;1.60;;;1.50;;
5871;SDS011;2962;51.312;7.378;2022-08-21T15:49:01;2.63;;;2.47;;
5871;SDS011;2962;51.312;7.378;2022-08-21T15:51:26;1.37;;;1.30;;
5871;SDS011;2962;51.312;7.378;2022-08-21T15:53:52;1.10;;;1.00;;
5871;SDS011;2962;51.312;7.378;2022-08-21T15:56:20;2.53;;;2.40;;
5871;SDS011;2962;51.312;7.378;2022-08-21T15:58:49;1.43;;;1.37;;
5871;SDS011;2962;51.312;7.378;2022-08-21T16:01:16;1.73;;;1.60;;
5871;SDS011;2962;51.312;7.378;2022-08-21T16:03:42;1.37;;;1.27;;
5871;SDS011;2962;51.312;7.378;2022-08-21T16:06:13;1.47;;;1.03;;
5871;SDS011;2962;51.312;7.378;2022-08-21T16:08:38;0.70;;;0.70;;
5871;SDS011;2962;51.312;7.378;2022-08-21T16:11:04;0.97;;;0.97;;
5871;SDS011;2962;51.312;7.378;2022-08-21T16:13:33;3.20;;;2.10;;
5871;SDS011;2962;51.312;7.378;2022-08-21T16:16:03;1.60;;;1.60;;
5871;SDS011;2962;51.312;7.378;2022-08-21T16:18:29;2.37;;;0.70;;
5871;SDS011;2962;51.312;7.378;2022-08-21T16:20:55;1.00;;;1.00;;
5871;SDS011;2962;51.312;7.378;2022-08-21T16:23:20;1.67;;;1.40;;
5871;SDS011;2962;51.312;7.378;2022-08-21T16:25:46;1.33;;;1.23;;
5871;SDS011;2962;51.312;7.378;2022-08-21T16:28:13;2.90;;;1.40;;